Time;durP1;ratioP1;P1;durP2;ratioP2;P2;SDS_P1;SDS_P2;PMS_P1;PMS_P2;Temp;Humidity;BMP_temperature;BMP_pressure;BME280_temperature;BME280_humidity;BME280_pressure;Samples;Min_cycle;Max_cycle;Signal;HPM_P1;HPM_P2
2023/03/24 00:01:20;;;;;;;1.00;0.90;;;;;;;11.55;100.00;99779.19;5046095;28;20033;-64
2023/03/24 00:03:47;;;;;;;1.92;1.17;;;;;;;11.53;100.00;99770.41;5047018;28;20033;-64
2023/03/24 00:06:13;;;;;;;1.48;1.13;;;;;;;11.55;100.00;99765.44;5046805;28;20021;-64
2023/03/24 00:08:40;;;;;;;1.17;1.08;;;;;;;11.54;100.00;99761.88;5045461;28;20437;-64
2023/03/24 00:11:10;;;;;;;1.73;1.10;;;;;;;11.60;100.00;99755.31;5045245;28;20484;-64
2023/03/24 00:13:39;;;;;;;0.90;0.90;;;;;;;11.56;100.00;99743.22;5046543;28;20055;-64
2023/03/24 00:16:07;;;;;;;1.30;1.20;;;;;;;11.50;100.00;99757.16;5067067;28;20071;-63
2023/03/24 00:18:32;;;;;;;1.50;1.00;;;;;;;11.56;100.00;99756.97;5052912;28;20112;-63
2023/03/24 00:20:57;;;;;;;1.25;1.08;;;;;;;11.54;100.00;99748.13;5046790;28;20104;-62
2023/03/24 00:23:31;;;;;;;1.48;1.17;;;;;;;11.62;100.00;99749.56;5048821;28;20033;-64
2023/03/24 00:26:23;;;;;;;1.00;1.00;;;;;;;11.62;100.00;99741.31;5046582;28;20017;-64
2023/03/24 00:28:50;;;;;;;1.42;1.17;;;;;;;11.63;100.00;99741.03;5052221;28;20044;-63
2023/03/24 00:31:16;;;;;;;1.70;1.20;;;;;;;11.69;100.00;99737.22;5047033;28;20033;-63
2023/03/24 00:33:46;;;;;;;1.27;1.13;;;;;;;11.74;100.00;99746.63;5048917;28;20060;-62
2023/03/24 00:36:12;;;;;;;1.88;1.10;;;;;;;11.81;100.00;99739.78;5056400;28;20665;-64
2023/03/24 00:38:39;;;;;;;1.20;1.10;;;;;;;11.81;100.00;99738.94;5057443;28;20033;-63
2023/03/24 00:41:12;;;;;;;1.20;1.10;;;;;;;11.84;100.00;99733.78;5050937;28;20063;-64
2023/03/24 00:43:38;;;;;;;0.98;0.98;;;;;;;11.79;100.00;99719.97;5058346;28;20029;-64
2023/03/24 00:46:06;;;;;;;1.38;1.08;;;;;;;11.95;100.00;99720.91;5055787;28;20090;-64
2023/03/24 00:48:32;;;;;;;1.15;1.00;;;;;;;11.87;100.00;99710.41;5049597;28;20108;-62
2023/03/24 00:51:01;;;;;;;1.38;0.90;;;;;;;11.95;100.00;99710.72;5051021;28;20120;-64
2023/03/24 00:53:28;;;;;;;1.20;1.10;;;;;;;11.97;100.00;99709.66;5049952;28;20021;-64
2023/03/24 00:55:53;;;;;;;1.40;1.02;;;;;;;12.00;100.00;99706.34;5059613;28;20036;-65
2023/03/24 00:58:22;;;;;;;1.38;0.85;;;;;;;12.04;100.00;99708.28;5056637;28;20025;-64
2023/03/24 01:00:53;;;;;;;1.33;1.08;;;;;;;12.02;100.00;99688.47;5056955;28;20046;-63
2023/03/24 01:03:26;;;;;;;1.30;0.93;;;;;;;12.00;100.00;99696.16;5068383;28;20107;-64
2023/03/24 01:05:56;;;;;;;1.15;1.00;;;;;;;12.11;100.00;99694.28;5051478;28;20041;-63
2023/03/24 01:08:21;;;;;;;1.10;0.90;;;;;;;12.17;100.00;99682.22;5065127;28;20480;-64
2023/03/24 01:10:52;;;;;;;1.10;1.00;;;;;;;12.10;100.00;99685.19;5068398;28;20029;-63
2023/03/24 01:13:22;;;;;;;1.15;1.05;;;;;;;12.19;100.00;99672.56;5067854;28;20029;-63
2023/03/24 01:15:48;;;;;;;1.10;0.90;;;;;;;12.12;100.00;99684.94;5059157;28;20487;-63
2023/03/24 01:18:14;;;;;;;0.82;0.80;;;;;;;12.12;100.00;99677.50;5063756;28;20024;-63
2023/03/24 01:20:44;;;;;;;1.13;1.00;;;;;;;12.16;100.00;99667.59;5053808;28;20063;-61
2023/03/24 01:23:12;;;;;;;1.30;1.05;;;;;;;12.15;100.00;99663.19;5066013;28;20035;-64
2023/03/24 01:25:38;;;;;;;1.08;0.90;;;;;;;12.15;100.00;99660.44;5058800;28;20029;-64
2023/03/24 01:28:04;;;;;;;1.40;0.90;;;;;;;12.10;100.00;99662.34;5061313;28;20020;-64
2023/03/24 01:30:30;;;;;;;0.80;0.80;;;;;;;12.08;100.00;99650.78;5033586;28;20036;-64
2023/03/24 01:32:56;;;;;;;1.42;0.90;;;;;;;12.01;100.00;99674.97;5052641;28;20091;-64
2023/03/24 01:35:24;;;;;;;1.48;0.90;;;;;;;12.08;100.00;99659.06;5063722;28;20037;-63
2023/03/24 01:37:50;;;;;;;1.08;1.02;;;;;;;12.04;100.00;99652.44;5066377;28;20055;-63
2023/03/24 01:40:29;;;;;;;1.42;0.98;;;;;;;11.90;100.00;99658.41;5067387;28;20045;-61
2023/03/24 01:42:55;;;;;;;0.88;0.88;;;;;;;11.87;100.00;99652.66;5067133;28;20024;-64
2023/03/24 01:45:41;;;;;;;1.10;1.00;;;;;;;11.91;100.00;99654.59;5056018;28;20037;-63
2023/03/24 01:48:22;;;;;;;0.93;0.80;;;;;;;11.91;100.00;99648.22;5056781;28;20083;-63
2023/03/24 01:50:54;;;;;;;1.10;1.00;;;;;;;11.86;100.00;99645.47;5047811;28;20096;-62
2023/03/24 01:53:20;;;;;;;1.42;1.05;;;;;;;11.89;100.00;99656.75;5048643;28;20161;-64
2023/03/24 01:55:47;;;;;;;1.17;0.93;;;;;;;11.96;100.00;99634.50;5052097;28;20588;-63
2023/03/24 01:58:13;;;;;;;1.25;0.90;;;;;;;11.87;100.00;99639.72;5066897;28;20479;-64
2023/03/24 02:00:40;;;;;;;1.38;1.00;;;;;;;11.84;100.00;99628.41;5068899;28;20024;-62
2023/03/24 02:03:10;;;;;;;1.05;0.98;;;;;;;11.84;100.00;99623.72;5049278;28;20060;-62
2023/03/24 02:05:38;;;;;;;1.35;1.10;;;;;;;11.92;100.00;99623.22;5060592;28;20021;-65
2023/03/24 02:08:17;;;;;;;1.15;1.05;;;;;;;11.87;100.00;99617.69;5046239;28;20025;-64
2023/03/24 02:10:43;;;;;;;0.90;0.90;;;;;;;11.86;100.00;99634.47;5061182;28;20044;-61
2023/03/24 02:13:10;;;;;;;1.23;0.85;;;;;;;11.93;100.00;99624.88;5065081;28;20035;-62
2023/03/24 02:15:47;;;;;;;1.52;1.00;;;;;;;11.84;100.00;99625.66;5053891;28;20017;-64
2023/03/24 02:18:27;;;;;;;1.10;1.00;;;;;;;11.82;100.00;99630.63;5064357;28;20024;-64
2023/03/24 02:21:13;;;;;;;1.30;1.20;;;;;;;11.77;100.00;99625.88;5056445;28;20371;-64
2023/03/24 02:23:56;;;;;;;1.73;1.17;;;;;;;11.85;100.00;99619.88;5064869;28;20056;-64
2023/03/24 02:26:38;;;;;;;1.23;1.00;;;;;;;11.77;100.00;99633.31;5045815;28;20033;-64
2023/03/24 02:29:43;;;;;;;1.63;1.08;;;;;;;11.74;100.00;99629.16;5054654;28;20151;-64
2023/03/24 02:32:30;;;;;;;1.10;1.00;;;;;;;11.75;100.00;99635.47;5066577;28;20043;-63
2023/03/24 02:35:01;;;;;;;1.30;1.00;;;;;;;11.67;100.00;99648.66;5063401;28;20072;-64
2023/03/24 02:38:00;;;;;;;1.30;1.10;;;;;;;11.79;100.00;99651.19;5039711;28;20037;-62
2023/03/24 02:43:45;;;;;;;1.67;1.00;;;;;;;11.68;100.00;99633.81;5034327;28;20041;-64
2023/03/24 02:46:24;;;;;;;1.30;1.20;;;;;;;11.75;100.00;99632.72;5026647;28;20030;-61
2023/03/24 02:49:30;;;;;;;1.10;1.00;;;;;;;11.76;100.00;99635.22;5027561;28;20021;-61
2023/03/24 02:52:06;;;;;;;1.55;1.20;;;;;;;11.73;100.00;99641.25;5015810;28;20041;-64
2023/03/24 02:54:53;;;;;;;1.17;1.10;;;;;;;11.77;100.00;99642.38;5026515;28;20053;-62
2023/03/24 02:57:30;;;;;;;1.23;0.93;;;;;;;11.69;100.00;99651.13;5013108;28;20068;-63
2023/03/24 03:00:23;;;;;;;1.27;1.10;;;;;;;11.68;100.00;99644.00;5035028;28;20175;-64
2023/03/24 03:03:03;;;;;;;1.38;1.13;;;;;;;11.72;100.00;99653.38;5045127;28;20036;-63
2023/03/24 03:05:41;;;;;;;0.93;0.93;;;;;;;11.71;100.00;99665.47;5036284;28;20025;-63
2023/03/24 03:08:08;;;;;;;0.90;0.90;;;;;;;11.69;100.00;99695.97;5043706;28;20029;-64
2023/03/24 03:10:41;;;;;;;1.17;1.10;;;;;;;11.80;100.00;99693.28;5042833;28;20091;-64
2023/03/24 03:13:26;;;;;;;1.10;1.00;;;;;;;11.64;100.00;99698.69;5044809;28;20544;-63
2023/03/24 03:15:56;;;;;;;1.08;1.05;;;;;;;11.57;100.00;99713.78;5042086;28;20036;-63
2023/03/24 03:18:30;;;;;;;0.88;0.88;;;;;;;11.57;100.00;99700.03;5058239;28;20033;-64
2023/03/24 03:21:10;;;;;;;0.70;0.70;;;;;;;11.37;100.00;99726.28;5033618;28;20063;-62
2023/03/24 03:23:39;;;;;;;0.70;0.70;;;;;;;11.26;100.00;99734.72;5039332;28;20036;-64
2023/03/24 03:26:11;;;;;;;0.75;0.70;;;;;;;11.24;100.00;99721.22;5039100;28;20029;-61
2023/03/24 03:28:48;;;;;;;1.17;0.70;;;;;;;11.09;100.00;99730.16;5040096;28;20159;-63
2023/03/24 03:31:18;;;;;;;1.47;0.70;;;;;;;10.87;100.00;99734.91;5044677;28;20110;-63
2023/03/24 03:33:58;;;;;;;1.52;0.70;;;;;;;10.76;100.00;99742.22;5035167;28;20323;-64
2023/03/24 03:36:40;;;;;;;0.70;0.70;;;;;;;10.60;100.00;99749.47;5017628;28;20029;-63
2023/03/24 03:39:26;;;;;;;1.02;0.80;;;;;;;10.54;100.00;99775.22;5040992;28;20040;-64
2023/03/24 03:41:52;;;;;;;1.67;0.82;;;;;;;10.46;100.00;99794.88;5043786;28;20083;-64
2023/03/24 03:44:17;;;;;;;1.17;0.85;;;;;;;10.38;100.00;99801.63;5035849;28;20075;-63
2023/03/24 03:46:42;;;;;;;1.25;0.90;;;;;;;10.32;100.00;99799.09;5038115;28;20025;-64
2023/03/24 03:49:08;;;;;;;1.55;0.90;;;;;;;10.24;100.00;99796.78;5042545;28;20033;-62
2023/03/24 03:51:34;;;;;;;2.08;1.00;;;;;;;10.17;100.00;99805.16;5041152;28;20691;-64
2023/03/24 03:54:03;;;;;;;1.45;1.00;;;;;;;10.13;100.00;99810.31;5025889;28;20116;-61
2023/03/24 03:56:33;;;;;;;2.05;1.10;;;;;;;10.11;100.00;99809.75;5042799;28;20097;-64
2023/03/24 03:58:58;;;;;;;0.85;0.82;;;;;;;10.22;100.00;99807.16;5046009;28;20060;-60
2023/03/24 04:01:28;;;;;;;1.48;1.00;;;;;;;10.02;100.00;99814.00;5042672;28;20087;-64
2023/03/24 04:04:19;;;;;;;1.65;1.00;;;;;;;10.36;100.00;99817.53;5040415;28;20030;-64
2023/03/24 04:06:53;;;;;;;2.65;0.98;;;;;;;9.99;100.00;99824.69;5025511;28;20037;-63
2023/03/24 04:09:27;;;;;;;1.70;1.02;;;;;;;9.95;100.00;99826.25;5025364;28;20535;-61
2023/03/24 04:12:18;;;;;;;1.52;1.10;;;;;;;9.86;100.00;99825.84;5026538;28;20045;-64
2023/03/24 04:15:08;;;;;;;2.13;1.38;;;;;;;9.97;100.00;99846.03;5023441;28;20017;-65
2023/03/24 04:18:16;;;;;;;2.30;1.35;;;;;;;10.02;100.00;99857.09;5028477;28;20037;-64
2023/03/24 04:20:49;;;;;;;2.50;1.60;;;;;;;10.03;100.00;99859.56;4958869;28;20552;-63
2023/03/24 04:23:21;;;;;;;3.20;1.50;;;;;;;10.05;100.00;99878.53;5024119;28;20364;-63
2023/03/24 04:25:57;;;;;;;2.97;1.60;;;;;;;10.10;100.00;99865.72;5038832;28;20040;-64
2023/03/24 04:28:41;;;;;;;4.03;1.77;;;;;;;9.97;100.00;99866.06;5042371;28;20037;-64
2023/03/24 04:31:32;;;;;;;3.05;1.67;;;;;;;10.23;100.00;99891.13;5034162;28;20029;-63
2023/03/24 04:34:03;;;;;;;3.53;1.40;;;;;;;9.93;100.00;99888.75;5039134;28;20540;-64
2023/03/24 04:36:49;;;;;;;3.10;1.60;;;;;;;9.91;100.00;99893.66;5043037;28;20025;-64
2023/03/24 04:39:27;;;;;;;2.65;1.40;;;;;;;9.87;100.00;99869.47;5045080;28;20052;-63
2023/03/24 04:41:55;;;;;;;2.45;1.55;;;;;;;9.82;100.00;99888.59;5030656;28;20506;-61
2023/03/24 04:44:20;;;;;;;;;;;;;;;9.96;100.00;99891.84;5031117;28;20040;-63
2023/03/24 04:46:49;;;;;;;3.42;1.50;;;;;;;9.79;100.00;99896.50;5044373;28;20003;-62
2023/03/24 04:49:14;;;;;;;3.85;1.40;;;;;;;9.72;100.00;99891.16;5046579;28;20071;-64
2023/03/24 04:51:40;;;;;;;2.78;1.40;;;;;;;9.68;100.00;99897.38;5027131;28;20030;-63
2023/03/24 04:54:06;;;;;;;2.30;1.35;;;;;;;9.65;100.00;99893.25;5038498;28;20594;-65
2023/03/24 04:56:46;;;;;;;2.35;1.38;;;;;;;9.60;100.00;99898.63;5045767;28;20025;-62
2023/03/24 04:59:12;;;;;;;4.07;1.65;;;;;;;9.51;100.00;99903.69;5040004;28;20582;-65
2023/03/24 05:01:38;;;;;;;3.05;1.50;;;;;;;9.45;100.00;99910.16;5025185;28;20547;-65
2023/03/24 05:04:04;;;;;;;2.47;1.48;;;;;;;9.43;100.00;99904.09;5026121;28;20045;-65
2023/03/24 05:06:30;;;;;;;3.88;1.50;;;;;;;9.48;100.00;99906.09;5026503;28;20356;-65
2023/03/24 05:08:57;;;;;;;1.88;1.25;;;;;;;9.44;100.00;99921.38;5025278;28;20021;-66
2023/03/24 05:11:24;;;;;;;3.73;1.40;;;;;;;9.32;100.00;99913.19;5026223;28;20030;-64
2023/03/24 05:13:49;;;;;;;3.28;1.45;;;;;;;9.29;100.00;99919.19;5024926;28;20018;-64
2023/03/24 05:16:15;;;;;;;2.35;1.20;;;;;;;9.23;100.00;99925.66;5025133;28;20378;-65
2023/03/24 05:18:40;;;;;;;2.65;1.20;;;;;;;9.23;100.00;99937.44;5025306;28;20029;-64
2023/03/24 05:21:05;;;;;;;4.18;1.30;;;;;;;9.28;100.00;99933.97;5028386;28;20444;-64
2023/03/24 05:23:31;;;;;;;2.88;1.33;;;;;;;9.25;100.00;99943.50;5028932;28;20071;-64
2023/03/24 05:25:56;;;;;;;3.97;1.40;;;;;;;9.25;100.00;99950.88;5029744;28;20025;-63
2023/03/24 05:28:21;;;;;;;3.97;1.60;;;;;;;9.24;100.00;99955.53;5028818;28;20041;-65
2023/03/24 05:30:47;;;;;;;3.22;1.50;;;;;;;9.32;100.00;99957.03;5028950;28;20096;-62
2023/03/24 05:33:12;;;;;;;3.83;1.52;;;;;;;9.38;100.00;99950.59;5028925;28;20072;-65
2023/03/24 05:35:37;;;;;;;5.03;1.85;;;;;;;9.39;100.00;99956.91;5029061;28;20468;-65
2023/03/24 05:38:02;;;;;;;5.03;1.80;;;;;;;9.34;100.00;99966.69;5028271;28;20032;-63
2023/03/24 05:40:28;;;;;;;3.60;1.67;;;;;;;9.34;100.00;99969.44;5028875;28;20029;-65
2023/03/24 05:42:53;;;;;;;3.97;1.83;;;;;;;9.35;100.00;99962.03;5028125;28;20058;-63
2023/03/24 05:45:18;;;;;;;5.07;1.80;;;;;;;9.25;100.00;99967.31;5028807;28;20037;-65
2023/03/24 05:47:45;;;;;;;5.15;1.88;;;;;;;9.22;100.00;99976.00;5028675;28;20430;-65
2023/03/24 05:50:11;;;;;;;4.57;1.77;;;;;;;9.23;100.00;99973.06;5028805;28;20116;-65
2023/03/24 05:52:36;;;;;;;3.08;1.55;;;;;;;9.23;100.00;99975.78;5027825;28;20024;-65
2023/03/24 05:55:01;;;;;;;3.38;1.55;;;;;;;9.24;100.00;99971.13;5028244;28;20072;-64
2023/03/24 05:57:29;;;;;;;3.80;1.80;;;;;;;9.23;100.00;99983.19;5028614;28;20113;-65
2023/03/24 05:59:55;;;;;;;3.53;1.70;;;;;;;9.27;100.00;99976.94;5027800;28;20494;-66
2023/03/24 06:02:20;;;;;;;4.20;1.77;;;;;;;9.26;100.00;99980.78;5028145;28;20642;-65
2023/03/24 06:04:47;;;;;;;4.05;1.73;;;;;;;9.22;100.00;99985.06;5027896;28;20033;-66
2023/03/24 06:07:13;;;;;;;2.22;1.52;;;;;;;9.27;100.00;99982.44;5027779;28;20036;-65
2023/03/24 06:09:41;;;;;;;4.10;1.60;;;;;;;9.29;100.00;99985.78;5027485;28;20325;-64
2023/03/24 06:12:07;;;;;;;2.60;1.50;;;;;;;9.30;100.00;99992.91;5028565;28;20143;-65
2023/03/24 06:14:32;;;;;;;3.65;1.63;;;;;;;9.31;100.00;99983.59;5027261;28;20338;-66
2023/03/24 06:16:58;;;;;;;4.70;1.45;;;;;;;9.34;100.00;99988.63;5028599;28;20037;-65
2023/03/24 06:19:29;;;;;;;4.10;1.70;;;;;;;9.45;100.00;99984.16;5028288;28;20112;-65
2023/03/24 06:21:54;;;;;;;3.50;1.50;;;;;;;9.50;100.00;99991.66;5028080;28;20033;-65
2023/03/24 06:24:20;;;;;;;4.43;1.50;;;;;;;9.60;100.00;99997.34;5027291;28;20028;-66
2023/03/24 06:26:48;;;;;;;3.70;1.58;;;;;;;9.72;100.00;99995.34;5028219;28;20017;-63
2023/03/24 06:29:17;;;;;;;3.47;1.70;;;;;;;9.77;100.00;99998.19;5028125;28;20431;-66
2023/03/24 06:31:43;;;;;;;3.42;1.55;;;;;;;9.79;100.00;99996.06;5027749;28;20032;-65
2023/03/24 06:34:08;;;;;;;3.67;1.50;;;;;;;9.69;100.00;100006.84;5028052;28;20029;-63
2023/03/24 06:36:33;;;;;;;3.72;1.50;;;;;;;9.72;100.00;100005.50;5027837;28;20024;-65
2023/03/24 06:39:01;;;;;;;3.05;1.50;;;;;;;9.60;100.00;100020.09;5027556;28;20071;-65
2023/03/24 06:41:26;;;;;;;3.88;1.50;;;;;;;9.60;100.00;100013.78;5028086;28;20145;-65
2023/03/24 06:43:52;;;;;;;4.07;1.50;;;;;;;9.65;100.00;100013.88;5027353;28;20452;-66
2023/03/24 06:46:17;;;;;;;3.83;1.60;;;;;;;9.71;100.00;100020.28;5059597;28;20026;-64
2023/03/24 06:48:42;;;;;;;3.47;1.40;;;;;;;9.83;99.67;100012.81;5027858;28;20128;-65
2023/03/24 06:51:08;;;;;;;4.60;1.50;;;;;;;9.96;98.64;100012.53;5027919;28;20026;-64
2023/03/24 06:53:34;;;;;;;3.00;1.55;;;;;;;10.03;98.11;100017.84;5026423;28;20319;-66
2023/03/24 06:55:59;;;;;;;4.38;1.80;;;;;;;10.16;97.13;100024.94;5028326;28;20033;-64
2023/03/24 06:58:25;;;;;;;4.32;1.58;;;;;;;10.25;97.52;100015.25;5026216;28;20017;-65
2023/03/24 07:00:50;;;;;;;4.40;1.95;;;;;;;10.36;96.78;100017.09;5026345;28;20037;-64
2023/03/24 07:03:16;;;;;;;3.53;1.40;;;;;;;10.52;96.74;100026.38;5026750;28;20475;-63
2023/03/24 07:05:43;;;;;;;4.30;1.63;;;;;;;10.64;95.97;100036.22;5027549;28;20116;-65
2023/03/24 07:08:10;;;;;;;5.75;2.10;;;;;;;10.73;94.90;100033.84;5026716;28;20025;-65
2023/03/24 07:10:38;;;;;;;4.10;1.48;;;;;;;10.82;93.83;100032.34;5027414;28;20364;-63
2023/03/24 07:13:03;;;;;;;4.60;1.60;;;;;;;10.92;93.32;100028.91;5027026;28;20440;-63
2023/03/24 07:15:29;;;;;;;4.90;1.52;;;;;;;10.95;93.44;100030.31;5027489;28;20033;-65
2023/03/24 07:17:54;;;;;;;5.47;1.55;;;;;;;10.99;93.75;100036.97;5026981;28;20172;-65
2023/03/24 07:20:20;;;;;;;4.00;1.77;;;;;;;11.10;92.76;100038.75;5027290;28;20391;-64
2023/03/24 07:22:46;;;;;;;4.10;1.55;;;;;;;11.10;92.59;100045.13;5025867;28;20029;-65
2023/03/24 07:25:13;;;;;;;3.53;1.42;;;;;;;11.09;92.75;100046.19;5027470;28;20083;-65
2023/03/24 07:27:38;;;;;;;4.60;1.63;;;;;;;11.08;94.04;100051.94;5026469;28;20133;-65
2023/03/24 07:30:04;;;;;;;4.22;1.60;;;;;;;11.24;93.42;100055.72;5026702;28;20438;-66
2023/03/24 07:32:33;;;;;;;3.90;1.70;;;;;;;11.36;92.03;100054.53;5027353;28;20032;-65
2023/03/24 07:35:00;;;;;;;4.30;1.50;;;;;;;11.64;91.46;100049.91;5027482;28;20044;-64
2023/03/24 07:37:25;;;;;;;4.28;1.50;;;;;;;12.28;87.65;100054.75;5025876;28;20465;-65
2023/03/24 07:39:50;;;;;;;4.82;1.98;;;;;;;12.59;84.88;100053.91;5026595;28;20037;-65
2023/03/24 07:42:16;;;;;;;4.07;1.40;;;;;;;12.63;84.86;100048.72;5025996;28;20435;-65
2023/03/24 07:44:41;;;;;;;3.90;1.40;;;;;;;12.70;84.12;100055.63;5024502;28;20029;-62
2023/03/24 07:47:06;;;;;;;3.45;1.42;;;;;;;13.02;83.11;100070.47;5022572;28;20033;-65
2023/03/24 07:49:32;;;;;;;3.55;1.35;;;;;;;13.58;80.76;100057.81;5025884;28;20156;-64
2023/03/24 07:51:57;;;;;;;4.50;1.60;;;;;;;13.65;79.45;100065.88;5026069;28;20112;-65
2023/03/24 07:54:23;;;;;;;4.10;1.40;;;;;;;13.71;78.15;100062.84;5026552;28;20044;-64
2023/03/24 07:56:49;;;;;;;3.95;1.40;;;;;;;13.72;77.78;100069.19;5026835;28;20029;-66
2023/03/24 07:59:16;;;;;;;3.55;1.52;;;;;;;13.83;78.72;100070.88;5026138;28;20089;-65
2023/03/24 08:01:42;;;;;;;3.42;1.52;;;;;;;14.05;77.36;100080.91;5025056;28;20025;-66
2023/03/24 08:04:10;;;;;;;4.47;1.60;;;;;;;14.15;76.29;100089.22;5026407;28;20040;-64
2023/03/24 08:06:36;;;;;;;3.95;1.50;;;;;;;13.87;77.50;100083.03;5026221;28;20030;-63
2023/03/24 08:09:01;;;;;;;3.45;1.35;;;;;;;13.77;78.02;100085.75;5042510;28;20341;-63
2023/03/24 08:11:26;;;;;;;4.28;1.42;;;;;;;13.49;78.58;100087.88;5046980;28;20021;-65
2023/03/24 08:13:52;;;;;;;3.72;1.50;;;;;;;13.21;80.07;100094.59;5045543;28;20460;-63
2023/03/24 08:16:17;;;;;;;3.83;1.38;;;;;;;13.25;78.65;100089.38;5046985;28;20039;-64
2023/03/24 08:18:42;;;;;;;3.58;1.40;;;;;;;12.88;81.37;100090.22;5029768;28;20044;-66
2023/03/24 08:21:07;;;;;;;3.72;1.38;;;;;;;12.89;82.41;100102.09;5026058;28;20029;-65
2023/03/24 08:23:35;;;;;;;2.67;1.17;;;;;;;12.79;81.96;100093.75;5037073;28;20451;-65
2023/03/24 08:26:01;;;;;;;3.78;1.50;;;;;;;12.72;82.40;100102.19;5047083;28;20037;-65
2023/03/24 08:28:26;;;;;;;3.50;1.60;;;;;;;12.74;81.82;100097.28;5032852;28;20030;-66
2023/03/24 08:30:52;;;;;;;4.15;1.40;;;;;;;13.12;82.31;100098.09;5026302;28;20091;-65
2023/03/24 08:33:17;;;;;;;4.07;1.38;;;;;;;13.28;78.51;100108.19;5026873;28;20025;-64
2023/03/24 08:35:45;;;;;;;3.80;1.50;;;;;;;13.13;80.50;100110.81;5026399;28;20395;-64
2023/03/24 08:38:10;;;;;;;4.35;1.52;;;;;;;13.11;79.13;100108.28;5025746;28;20061;-65
2023/03/24 08:40:38;;;;;;;3.20;1.50;;;;;;;13.06;79.69;100112.94;5025675;28;20049;-65
2023/03/24 08:43:07;;;;;;;3.90;1.63;;;;;;;12.94;80.43;100119.47;5038554;28;20479;-66
2023/03/24 08:45:33;;;;;;;4.47;1.42;;;;;;;12.93;80.71;100122.50;5045931;28;20021;-66
2023/03/24 08:48:04;;;;;;;3.65;1.42;;;;;;;12.92;79.76;100121.66;5035969;28;20033;-65
2023/03/24 08:50:34;;;;;;;3.80;1.30;;;;;;;12.65;81.14;100127.22;5027063;28;20033;-65
2023/03/24 08:53:00;;;;;;;4.25;1.50;;;;;;;12.64;83.18;100130.25;5024142;28;20041;-65
2023/03/24 08:55:26;;;;;;;5.22;1.50;;;;;;;12.55;81.93;100124.38;5029313;28;20080;-64
2023/03/24 08:57:52;;;;;;;3.17;1.60;;;;;;;12.52;81.29;100122.16;5029629;28;20041;-65
2023/03/24 09:00:19;;;;;;;4.13;1.40;;;;;;;12.25;83.69;100133.16;5030801;28;20422;-66
2023/03/24 09:02:47;;;;;;;4.47;1.40;;;;;;;12.18;83.52;100140.81;5034417;28;20037;-65
2023/03/24 09:05:14;;;;;;;3.13;1.35;;;;;;;12.00;84.87;100138.41;5029913;28;20522;-65
2023/03/24 09:07:40;;;;;;;4.00;1.52;;;;;;;11.87;85.79;100132.22;5025809;28;20313;-65
2023/03/24 09:10:08;;;;;;;3.33;1.30;;;;;;;12.06;84.52;100142.88;5029234;28;20099;-66
2023/03/24 09:12:35;;;;;;;3.27;1.60;;;;;;;12.14;84.04;100142.41;5027010;28;20571;-64
2023/03/24 09:15:00;;;;;;;4.45;1.52;;;;;;;12.09;85.22;100140.44;5030188;28;20292;-63
2023/03/24 09:17:25;;;;;;;3.40;1.65;;;;;;;12.37;83.98;100133.88;5027609;28;20025;-65
2023/03/24 09:19:50;;;;;;;3.72;1.40;;;;;;;12.64;82.16;100133.84;5026846;28;20468;-66
2023/03/24 09:22:16;;;;;;;2.55;1.20;;;;;;;12.90;81.61;100139.56;5028577;28;20079;-65
2023/03/24 09:24:43;;;;;;;3.72;1.45;;;;;;;13.67;77.88;100149.19;5028730;28;20028;-65
2023/03/24 09:27:08;;;;;;;4.07;1.63;;;;;;;15.50;70.91;100132.03;5030507;28;20029;-66
2023/03/24 09:29:34;;;;;;;3.40;1.30;;;;;;;15.98;67.24;100133.28;5031713;28;20052;-63
2023/03/24 09:31:59;;;;;;;4.00;1.40;;;;;;;15.88;66.89;100136.09;5030094;28;20120;-65
2023/03/24 09:34:24;;;;;;;3.45;1.30;;;;;;;15.38;67.98;100145.34;5026697;28;20033;-65
2023/03/24 09:36:50;;;;;;;3.88;1.50;;;;;;;14.58;69.87;100153.38;5032592;28;20037;-66
2023/03/24 09:39:16;;;;;;;3.35;1.20;;;;;;;13.84;73.48;100163.66;5027534;28;20029;-65
2023/03/24 09:41:44;;;;;;;2.90;1.50;;;;;;;13.19;79.90;100164.88;5027123;28;20265;-65
2023/03/24 09:44:29;;;;;;;3.67;1.50;;;;;;;12.85;84.48;100164.31;5030358;28;20041;-66
2023/03/24 09:47:14;;;;;;;3.38;1.33;;;;;;;12.61;85.32;100172.09;5040283;28;20044;-66
2023/03/24 09:49:42;;;;;;;3.22;1.33;;;;;;;13.74;86.43;100172.72;5030933;28;20033;-66
2023/03/24 09:52:12;;;;;;;2.70;1.33;;;;;;;15.68;76.67;100169.41;5025567;28;20029;-66
2023/03/24 09:54:57;;;;;;;3.63;1.35;;;;;;;17.63;68.69;100156.69;5027273;28;20027;-66
2023/03/24 09:57:28;;;;;;;2.85;1.13;;;;;;;17.82;63.62;100160.41;5025755;28;20131;-63
2023/03/24 09:59:54;;;;;;;2.70;0.98;;;;;;;16.96;65.69;100164.00;5022390;28;20079;-65
2023/03/24 10:02:21;;;;;;;2.03;1.20;;;;;;;16.78;68.47;100173.88;5027427;28;20108;-66
2023/03/24 10:04:47;;;;;;;3.75;1.30;;;;;;;17.33;64.06;100167.00;5028526;28;20443;-63
2023/03/24 10:07:41;;;;;;;3.92;1.70;;;;;;;17.21;64.65;100177.66;5026050;28;20022;-66
2023/03/24 10:10:36;;;;;;;2.85;1.20;;;;;;;17.53;62.58;100170.69;5028076;28;20144;-67
2023/03/24 10:13:11;;;;;;;4.65;1.40;;;;;;;16.50;64.50;100175.41;5030577;28;20065;-64
2023/03/24 10:15:48;;;;;;;3.58;1.38;;;;;;;15.32;68.67;100188.81;5023039;28;20029;-64
2023/03/24 10:18:22;;;;;;;3.25;1.73;;;;;;;14.68;72.09;100192.94;5025667;28;20061;-64
2023/03/24 10:20:55;;;;;;;4.00;1.60;;;;;;;14.44;71.62;100191.72;5028705;28;20403;-65
2023/03/24 10:23:26;;;;;;;2.90;1.40;;;;;;;14.14;74.27;100197.97;5033133;28;20025;-63
2023/03/24 10:26:24;;;;;;;2.80;1.27;;;;;;;14.70;73.61;100189.88;5022717;28;20037;-65
2023/03/24 10:28:51;;;;;;;;;;;;;;;15.02;71.66;100195.19;5028828;28;20033;-66
2023/03/24 10:31:25;;;;;;;3.40;1.42;;;;;;;14.31;73.52;100195.84;5029326;28;20431;-65
2023/03/24 10:33:51;;;;;;;3.63;1.38;;;;;;;14.01;73.32;100189.09;5028611;28;20144;-65
2023/03/24 10:36:19;;;;;;;3.60;1.42;;;;;;;13.67;75.81;100179.53;5035478;28;20057;-66
2023/03/24 10:38:44;;;;;;;3.28;1.27;;;;;;;14.08;75.69;100188.03;5027387;28;20024;-62
2023/03/24 10:41:17;;;;;;;3.60;1.50;;;;;;;14.87;72.17;100184.13;5028275;28;20407;-66
2023/03/24 10:43:44;;;;;;;3.47;1.30;;;;;;;15.35;68.69;100173.56;5028237;28;20568;-65
2023/03/24 10:46:13;;;;;;;3.42;1.23;;;;;;;15.24;68.03;100173.59;5026671;28;20427;-66
2023/03/24 10:48:39;;;;;;;4.63;1.20;;;;;;;15.22;68.37;100170.28;5040743;28;20087;-65
2023/03/24 10:51:05;;;;;;;3.17;1.23;;;;;;;15.26;67.46;100171.38;5048053;28;20021;-68
2023/03/24 10:53:36;;;;;;;5.47;2.17;;;;;;;15.38;66.22;100165.56;5045424;28;20033;-64
2023/03/24 10:56:01;;;;;;;3.35;1.30;;;;;;;15.33;65.77;100165.56;5024858;28;20022;-63
2023/03/24 10:58:40;;;;;;;2.67;1.25;;;;;;;15.21;67.12;100159.50;5026961;28;20026;-66
2023/03/24 11:01:22;;;;;;;3.58;1.42;;;;;;;14.73;68.96;100175.53;5025695;28;20044;-65
2023/03/24 11:03:48;;;;;;;2.80;1.25;;;;;;;14.50;68.61;100166.66;5026585;28;20281;-65
2023/03/24 11:06:18;;;;;;;2.80;1.30;;;;;;;14.67;67.86;100177.44;5026850;28;20048;-65
2023/03/24 11:08:44;;;;;;;2.97;1.02;;;;;;;14.91;65.30;100174.16;5026831;28;20104;-65
2023/03/24 11:11:30;;;;;;;3.28;1.25;;;;;;;15.21;64.13;100167.81;5026107;28;20037;-66
2023/03/24 11:14:00;;;;;;;1.45;1.20;;;;;;;15.32;65.51;100169.44;5027079;28;20060;-65
2023/03/24 11:16:37;;;;;;;2.53;1.00;;;;;;;16.64;61.94;100156.19;5025952;28;20014;-65
2023/03/24 11:19:06;;;;;;;3.35;1.00;;;;;;;16.49;60.63;100171.81;5046321;28;20115;-65
2023/03/24 11:21:34;;;;;;;2.28;1.02;;;;;;;15.96;60.39;100165.97;5041647;28;20115;-63
2023/03/24 11:24:02;;;;;;;2.85;1.27;;;;;;;15.32;61.74;100167.50;5029361;28;20048;-65
2023/03/24 11:26:32;;;;;;;3.00;1.13;;;;;;;14.73;64.28;100167.22;5027235;28;20033;-65
2023/03/24 11:29:01;;;;;;;3.05;1.20;;;;;;;14.32;67.28;100178.16;5024435;28;20548;-66
2023/03/24 11:31:29;;;;;;;3.08;1.10;;;;;;;14.02;67.63;100174.19;5027943;28;20025;-65
2023/03/24 11:33:59;;;;;;;;;;;;;;;14.08;69.47;100177.81;5026095;28;20017;-63
2023/03/24 11:36:33;;;;;;;2.85;1.20;;;;;;;13.94;70.37;100177.50;5046718;28;19912;-65
2023/03/24 11:39:09;;;;;;;2.65;1.23;;;;;;;14.09;69.67;100170.34;5037181;28;20057;-64
2023/03/24 11:41:37;;;;;;;4.40;1.50;;;;;;;14.18;69.09;100175.09;5034531;28;20491;-65
2023/03/24 11:44:21;;;;;;;2.88;1.20;;;;;;;14.23;70.35;100171.50;5045943;28;20429;-65